Formosa, Argentina
Current Conditions -  °F | °C
As of 11:00 AM on Wednesday 26 Nov 2014 (Local Time) from SARF Reporting Station
Few Clouds Few Clouds  
Wind Chill: 84°   Ceiling: Unl
Heat Index: 91°   Visibility: 6mi
Dew Point: 73°   Wind: 13mph
Humidity: 70%   Direction: 180°S
Pressure: 29.83"   Gusts: NA
Location:  26.18°S, 58.18°W
Report Text: SARF 261400Z 18011KT 9999 FEW020 29/23 Q1010
Loading
Personal Weather Stations






























Interactive Weather Map New forecast layout! Learn more

10-Day Weather Forecast

Advertisements
Track Severe Weather on mobile